Time;durP1;ratioP1;P1;durP2;ratioP2;P2;SDS_P1;SDS_P2;PMS_P1;PMS_P2;Temp;Humidity;BMP_temperature;BMP_pressure;BME280_temperature;BME280_humidity;BME280_pressure;Samples;Min_cycle;Max_cycle;Signal;HPM_P1;HPM_P2
2023/01/31 16:08:57;;;;;;;16.80;6.70;;;3.40;92.30;;;;;;7559298;19;21485;-72
2023/01/31 16:11:34;;;;;;;11.57;6.78;;;3.40;92.70;;;;;;7602669;19;21086;-72
2023/01/31 16:14:09;;;;;;;;;;;3.40;92.30;;;;;;7573415;19;20108;-72
2023/01/31 16:16:42;;;;;;;18.05;7.82;;;3.50;92.40;;;;;;7599886;19;19969;-73
2023/01/31 16:19:24;;;;;;;8.27;4.50;;;3.50;92.10;;;;;;7608874;19;20029;-73
2023/01/31 16:21:57;;;;;;;18.95;7.57;;;3.60;91.50;;;;;;7597603;19;20046;-72
2023/01/31 16:24:30;;;;;;;15.20;7.95;;;3.70;91.10;;;;;;7551020;19;20055;-72
2023/01/31 16:27:15;;;;;;;27.77;13.60;;;3.70;90.90;;;;;;7590903;19;20018;-72
2023/01/31 16:29:56;;;;;;;12.75;7.18;;;3.70;91.30;;;;;;7609560;19;20015;-73
2023/01/31 16:32:32;;;;;;;11.73;6.70;;;3.70;91.00;;;;;;7604701;19;20025;-73
2023/01/31 16:35:23;;;;;;;14.18;7.18;;;3.70;90.80;;;;;;7597277;19;20017;-72
2023/01/31 16:38:06;;;;;;;12.75;6.18;;;3.70;90.70;;;;;;7577853;19;20022;-72
2023/01/31 16:40:48;;;;;;;19.33;10.15;;;3.80;90.50;;;;;;7592243;19;20006;-72
2023/01/31 16:43:26;;;;;;;13.57;6.70;;;3.80;90.90;;;;;;7591411;19;21105;-73
2023/01/31 16:46:05;;;;;;;16.10;8.13;;;3.80;90.20;;;;;;7583461;19;20494;-73
2023/01/31 16:48:40;;;;;;;26.20;11.98;;;3.90;90.00;;;;;;7598495;19;20022;-71
2023/01/31 16:51:23;;;;;;;16.60;8.13;;;3.90;90.00;;;;;;7608868;19;20014;-72
2023/01/31 16:54:23;;;;;;;24.93;10.63;;;3.80;89.50;;;;;;7593369;19;20018;-73
2023/01/31 16:57:01;;;;;;;17.55;8.73;;;3.90;89.50;;;;;;7594827;19;20774;-73
2023/01/31 16:59:33;;;;;;;12.23;6.57;;;3.90;90.20;;;;;;7581554;19;20033;-72
2023/01/31 17:02:22;;;;;;;14.23;7.35;;;3.90;90.30;;;;;;7577235;19;20047;-73
2023/01/31 17:04:58;;;;;;;16.27;8.02;;;3.90;89.70;;;;;;7562328;19;20002;-73
2023/01/31 17:07:36;;;;;;;14.70;6.82;;;3.90;89.80;;;;;;7573247;19;20358;-73
2023/01/31 17:10:13;;;;;;;15.27;7.13;;;3.90;89.10;;;;;;7584096;19;20010;-72
2023/01/31 17:12:49;;;;;;;15.90;7.63;;;3.90;89.80;;;;;;7589613;19;20010;-72
2023/01/31 17:15:25;;;;;;;17.80;7.72;;;3.90;88.90;;;;;;7590532;19;20041;-72
2023/01/31 17:18:00;;;;;;;22.02;8.75;;;4.00;88.30;;;;;;7543876;19;20022;-73
2023/01/31 17:20:33;;;;;;;25.13;8.02;;;4.00;88.20;;;;;;7572244;19;20913;-73
2023/01/31 17:23:05;;;;;;;20.65;8.25;;;4.00;87.70;;;;;;7578292;19;20022;-73
2023/01/31 17:25:38;;;;;;;14.47;7.63;;;4.00;87.70;;;;;;7530379;19;20536;-73
2023/01/31 17:28:10;;;;;;;19.80;8.43;;;4.00;87.70;;;;;;7580726;19;20022;-73
2023/01/31 17:30:45;;;;;;;14.50;8.07;;;4.00;88.60;;;;;;7569457;19;20652;-73
2023/01/31 17:33:17;;;;;;;15.77;7.60;;;4.00;89.10;;;;;;7584074;19;20074;-72
2023/01/31 17:35:50;;;;;;;14.55;7.75;;;4.00;89.10;;;;;;7568317;19;20034;-73
2023/01/31 17:38:22;;;;;;;13.88;6.85;;;3.90;89.60;;;;;;7564428;19;20021;-73
2023/01/31 17:40:54;;;;;;;12.32;6.22;;;3.90;90.00;;;;;;7574216;19;20046;-73
2023/01/31 17:43:27;;;;;;;13.38;7.50;;;4.00;88.80;;;;;;7568068;19;20660;-73
2023/01/31 17:45:59;;;;;;;15.73;7.95;;;3.90;88.20;;;;;;7593168;19;20025;-73
2023/01/31 17:48:31;;;;;;;20.10;8.45;;;4.00;87.40;;;;;;7574770;19;20026;-73
2023/01/31 17:51:05;;;;;;;29.97;12.83;;;4.10;88.60;;;;;;7600220;19;20105;-72
2023/01/31 17:53:37;;;;;;;19.10;9.30;;;4.10;86.50;;;;;;7589180;19;20026;-72
2023/01/31 17:56:20;;;;;;;35.10;14.57;;;4.10;86.30;;;;;;7586368;19;20026;-71
2023/01/31 17:58:53;;;;;;;20.17;9.97;;;4.10;87.40;;;;;;7568400;19;20048;-72
2023/01/31 18:01:25;;;;;;;14.48;7.60;;;4.10;86.10;;;;;;7576497;19;20359;-72
2023/01/31 18:03:59;;;;;;;18.45;8.10;;;4.10;86.80;;;;;;7578381;19;20828;-71
2023/01/31 18:06:31;;;;;;;23.13;11.43;;;4.10;86.40;;;;;;7583726;19;20019;-72
2023/01/31 18:09:06;;;;;;;15.68;8.10;;;4.10;87.00;;;;;;7576967;19;20010;-72
2023/01/31 18:11:42;;;;;;;18.13;9.57;;;4.00;87.20;;;;;;7586367;19;20023;-71
2023/01/31 18:14:14;;;;;;;20.23;9.90;;;4.00;88.90;;;;;;7581537;19;20900;-71
2023/01/31 18:16:50;;;;;;;17.08;8.75;;;4.00;88.10;;;;;;7580563;19;20086;-72
2023/01/31 18:19:22;;;;;;;12.90;5.85;;;4.10;88.10;;;;;;7573827;19;20014;-72
2023/01/31 18:21:54;;;;;;;18.67;9.20;;;4.10;86.90;;;;;;7574325;19;20025;-72
2023/01/31 18:24:27;;;;;;;14.13;8.18;;;4.10;86.80;;;;;;7562311;19;20390;-72
2023/01/31 18:26:59;;;;;;;19.40;8.50;;;4.10;88.20;;;;;;7586657;19;20502;-73
2023/01/31 18:29:31;;;;;;;15.73;8.32;;;4.10;87.40;;;;;;7575275;19;21023;-73
2023/01/31 18:32:06;;;;;;;16.77;7.90;;;4.10;87.40;;;;;;7580843;19;20022;-72
2023/01/31 18:34:39;;;;;;;13.00;7.53;;;4.10;87.80;;;;;;7578083;19;20019;-73
2023/01/31 18:37:18;;;;;;;15.85;6.82;;;4.10;88.10;;;;;;7583257;19;20096;-73
2023/01/31 18:39:50;;;;;;;16.38;7.45;;;4.20;87.70;;;;;;7579284;19;20112;-73
2023/01/31 18:42:23;;;;;;;12.65;6.50;;;4.20;88.10;;;;;;7586408;19;20395;-72
2023/01/31 18:44:55;;;;;;;12.88;7.45;;;4.10;88.00;;;;;;7563013;19;20018;-73
2023/01/31 18:47:28;;;;;;;11.43;5.85;;;4.10;89.20;;;;;;7555795;19;20014;-73
2023/01/31 18:50:00;;;;;;;14.75;7.07;;;4.20;88.00;;;;;;7582142;19;20014;-72
2023/01/31 18:52:33;;;;;;;13.75;6.68;;;4.20;88.30;;;;;;7563649;19;20014;-71
2023/01/31 18:55:05;;;;;;;;;;;4.20;88.50;;;;;;7584698;19;20061;-72
2023/01/31 18:57:37;;;;;;;11.57;5.93;;;4.20;88.80;;;;;;7581959;19;19993;-72
2023/01/31 19:00:10;;;;;;;11.98;6.43;;;4.20;88.30;;;;;;7590826;19;20515;-71
2023/01/31 19:02:51;;;;;;;12.20;7.13;;;4.30;87.60;;;;;;7568779;19;20102;-72
2023/01/31 19:05:24;;;;;;;9.88;5.85;;;4.20;86.80;;;;;;7582807;19;20014;-72
2023/01/31 19:07:56;;;;;;;10.77;5.78;;;4.20;86.10;;;;;;7576864;19;20538;-72
2023/01/31 19:10:29;;;;;;;10.52;5.82;;;4.20;86.30;;;;;;7588246;19;20788;-72
2023/01/31 19:13:01;;;;;;;11.10;6.53;;;4.30;86.50;;;;;;7565624;19;20093;-73
2023/01/31 19:15:34;;;;;;;13.53;7.20;;;4.20;87.90;;;;;;7587393;19;20075;-73
2023/01/31 19:18:06;;;;;;;12.25;6.43;;;4.10;87.10;;;;;;7570575;19;20022;-72
2023/01/31 19:20:38;;;;;;;12.25;6.30;;;4.20;86.90;;;;;;7544947;19;20018;-73
2023/01/31 19:23:10;;;;;;;15.57;7.80;;;4.30;85.50;;;;;;7573133;19;20025;-72
2023/01/31 19:25:42;;;;;;;15.27;7.10;;;4.30;85.80;;;;;;7577705;19;20825;-70
2023/01/31 19:28:15;;;;;;;11.88;7.05;;;4.30;85.30;;;;;;7573045;19;20765;-71
2023/01/31 19:30:50;;;;;;;12.60;7.28;;;4.20;86.80;;;;;;7563368;19;20027;-71
2023/01/31 19:33:23;;;;;;;13.77;7.20;;;4.20;86.20;;;;;;7561288;19;20364;-71
2023/01/31 19:35:55;;;;;;;12.70;6.50;;;4.20;87.50;;;;;;7553478;19;20014;-71
2023/01/31 19:38:27;;;;;;;15.23;6.70;;;4.20;86.40;;;;;;7563756;19;20021;-71
2023/01/31 19:41:07;;;;;;;14.57;6.88;;;4.30;85.80;;;;;;7572177;19;20049;-71
2023/01/31 19:43:40;;;;;;;12.45;7.03;;;4.20;87.50;;;;;;7565931;19;20022;-73
2023/01/31 19:46:12;;;;;;;16.33;6.53;;;4.20;86.40;;;;;;7581925;19;20061;-71
2023/01/31 19:48:45;;;;;;;7.87;4.53;;;4.20;85.80;;;;;;7567861;19;20124;-71
2023/01/31 19:51:19;;;;;;;11.63;6.45;;;4.30;85.90;;;;;;7580965;19;20026;-72
2023/01/31 19:54:02;;;;;;;9.77;5.07;;;4.20;86.20;;;;;;7558451;19;20014;-71
2023/01/31 19:56:35;;;;;;;;;;;4.30;85.80;;;;;;7540527;19;20010;-73
2023/01/31 19:59:07;;;;;;;11.88;5.60;;;4.30;85.80;;;;;;7028155;19;10000395;-72
2023/01/31 20:01:39;;;;;;;7.78;4.65;;;4.20;85.20;;;;;;7488909;19;20937;-71
2023/01/31 20:04:12;;;;;;;8.45;4.70;;;4.30;85.40;;;;;;7538202;19;20082;-71
2023/01/31 20:06:44;;;;;;;9.43;4.75;;;4.40;84.90;;;;;;7554941;19;20021;-72
2023/01/31 20:09:18;;;;;;;7.95;4.47;;;4.40;84.10;;;;;;7529817;19;20022;-71
2023/01/31 20:11:52;;;;;;;8.30;5.07;;;4.40;84.10;;;;;;7566341;19;20019;-72
2023/01/31 20:14:24;;;;;;;9.00;5.72;;;4.30;83.30;;;;;;7552439;19;20398;-71
2023/01/31 20:16:57;;;;;;;9.80;4.95;;;4.30;84.20;;;;;;7520507;19;20122;-72
2023/01/31 20:19:29;;;;;;;13.48;5.70;;;4.30;84.20;;;;;;7527460;19;20399;-73
2023/01/31 20:22:01;;;;;;;9.60;5.18;;;4.30;84.40;;;;;;7548774;19;20958;-72
2023/01/31 20:24:33;;;;;;;10.52;5.75;;;4.40;83.90;;;;;;7526891;19;20067;-72
2023/01/31 20:27:05;;;;;;;12.52;6.20;;;4.30;83.70;;;;;;7547710;19;20061;-72
2023/01/31 20:29:38;;;;;;;12.65;5.57;;;4.40;84.10;;;;;;7549460;19;20018;-73
2023/01/31 20:32:12;;;;;;;13.27;6.07;;;4.30;84.80;;;;;;7538127;19;20019;-73
2023/01/31 20:34:44;;;;;;;10.55;5.95;;;4.30;85.10;;;;;;7572138;19;20192;-73
2023/01/31 20:37:16;;;;;;;12.73;6.40;;;4.30;85.70;;;;;;7547198;19;20048;-73
2023/01/31 20:39:48;;;;;;;12.70;6.60;;;4.30;87.00;;;;;;7519320;19;20014;-72
2023/01/31 20:42:23;;;;;;;8.18;3.97;;;4.30;87.90;;;;;;7551940;19;20018;-73
2023/01/31 20:44:56;;;;;;;10.60;5.80;;;4.30;87.60;;;;;;7550961;19;20052;-74
2023/01/31 20:47:28;;;;;;;8.18;5.40;;;4.20;89.40;;;;;;7528838;19;20014;-73
2023/01/31 20:50:01;;;;;;;9.05;5.13;;;4.20;90.10;;;;;;7536762;19;20018;-73
